Time;durP1;ratioP1;P1;durP2;ratioP2;P2;SDS_P1;SDS_P2;PMS_P1;PMS_P2;Temp;Humidity;BMP_temperature;BMP_pressure;BME280_temperature;BME280_humidity;BME280_pressure;Samples;Min_cycle;Max_cycle;Signal;HPM_P1;HPM_P2
2023/01/26 00:00:46;;;;;;;5.20;3.65;;;14.50;46.60;;;;;;5129799;27;45308;-71
2023/01/26 00:03:15;;;;;;;6.60;4.32;;;14.50;46.40;;;;;;5129801;27;45425;-71
2023/01/26 00:05:41;;;;;;;6.80;4.65;;;14.50;46.20;;;;;;5129462;27;45186;-71
2023/01/26 00:08:08;;;;;;;7.15;4.50;;;14.60;46.20;;;;;;5129189;27;45165;-71
2023/01/26 00:10:36;;;;;;;6.43;4.50;;;14.60;46.10;;;;;;5129691;27;45410;-71
2023/01/26 00:13:03;;;;;;;9.05;4.75;;;14.60;46.00;;;;;;5129609;27;45520;-71
2023/01/26 00:15:31;;;;;;;6.22;3.75;;;14.60;46.00;;;;;;5129396;27;46661;-71
2023/01/26 00:17:58;;;;;;;7.93;4.22;;;14.60;46.00;;;;;;5129348;27;45184;-72
2023/01/26 00:20:26;;;;;;;6.70;3.83;;;14.60;46.00;;;;;;5129432;27;45396;-72
2023/01/26 00:22:53;;;;;;;7.68;4.65;;;14.60;46.00;;;;;;5129534;27;45395;-71
2023/01/26 00:25:20;;;;;;;7.82;4.72;;;14.50;46.00;;;;;;5129278;27;45339;-71
2023/01/26 00:27:47;;;;;;;6.32;4.75;;;14.50;46.00;;;;;;5129190;27;45222;-71
2023/01/26 00:30:14;;;;;;;7.20;4.90;;;14.50;46.10;;;;;;5129147;27;45170;-71
2023/01/26 00:32:41;;;;;;;4.75;3.95;;;14.50;46.20;;;;;;5129398;27;45469;-71
2023/01/26 00:35:08;;;;;;;5.40;4.30;;;14.40;46.10;;;;;;5129118;27;45508;-71
2023/01/26 00:37:36;;;;;;;7.05;4.20;;;14.40;46.20;;;;;;5128427;27;45277;-71
2023/01/26 00:40:04;;;;;;;6.75;4.57;;;14.40;46.20;;;;;;5129066;27;45187;-71
2023/01/26 00:42:31;;;;;;;5.70;4.40;;;14.40;46.30;;;;;;5129164;27;45462;-71
2023/01/26 00:44:57;;;;;;;6.55;4.22;;;14.40;46.30;;;;;;5128878;27;46324;-71
2023/01/26 00:47:24;;;;;;;6.43;4.75;;;14.30;46.30;;;;;;5128979;27;45359;-71
2023/01/26 00:49:51;;;;;;;7.72;4.70;;;14.30;46.30;;;;;;5128961;27;45242;-71
2023/01/26 00:52:18;;;;;;;7.55;4.90;;;14.30;46.40;;;;;;5129413;27;45442;-71
2023/01/26 00:54:46;;;;;;;7.78;4.82;;;14.30;46.40;;;;;;5128712;27;45179;-71
2023/01/26 00:57:13;;;;;;;6.22;3.92;;;14.20;46.40;;;;;;5128640;27;45287;-71
2023/01/26 00:59:40;;;;;;;6.32;4.45;;;14.20;46.40;;;;;;5128784;27;45363;-71
2023/01/26 01:02:06;;;;;;;7.10;4.45;;;14.20;46.40;;;;;;5128898;27;45475;-71
2023/01/26 01:04:33;;;;;;;8.13;4.95;;;14.20;46.50;;;;;;5128435;27;46717;-72
2023/01/26 01:07:00;;;;;;;5.68;4.38;;;14.20;46.50;;;;;;5128852;27;45499;-71
2023/01/26 01:09:27;;;;;;;7.07;4.53;;;14.20;46.50;;;;;;5128215;27;45426;-71
2023/01/26 01:11:55;;;;;;;6.72;4.38;;;14.10;46.50;;;;;;5129038;27;45341;-71
2023/01/26 01:14:22;;;;;;;7.50;4.50;;;14.10;47.10;;;;;;5128418;27;47291;-72
2023/01/26 01:16:49;;;;;;;7.38;4.30;;;14.10;46.60;;;;;;5128424;27;45169;-71
2023/01/26 01:19:16;;;;;;;7.20;4.50;;;14.10;46.60;;;;;;5128351;27;45403;-71
2023/01/26 01:21:43;;;;;;;7.38;4.35;;;14.10;46.60;;;;;;5128511;27;45221;-72
2023/01/26 01:24:09;;;;;;;6.72;4.53;;;14.10;46.60;;;;;;5128158;27;45249;-72
2023/01/26 01:26:36;;;;;;;5.95;4.05;;;14.20;46.50;;;;;;5128246;27;45289;-72
2023/01/26 01:29:04;;;;;;;6.03;3.95;;;14.20;46.30;;;;;;5128175;27;45160;-71
2023/01/26 01:31:31;;;;;;;6.18;4.25;;;14.20;46.20;;;;;;5128534;27;45306;-71
2023/01/26 01:33:58;;;;;;;6.97;4.30;;;14.30;46.00;;;;;;5128030;27;46731;-71
2023/01/26 01:36:25;;;;;;;4.63;3.75;;;14.30;45.90;;;;;;5128108;27;45338;-71
2023/01/26 01:38:52;;;;;;;4.95;3.72;;;14.40;45.80;;;;;;5128039;27;45227;-71
2023/01/26 01:41:21;;;;;;;4.47;3.78;;;14.40;45.60;;;;;;5128310;27;45475;-71
2023/01/26 01:43:48;;;;;;;5.10;3.90;;;14.50;45.60;;;;;;5127855;27;46853;-71
2023/01/26 01:46:30;;;;;;;6.45;4.43;;;14.50;45.50;;;;;;5127978;27;45326;-71
2023/01/26 01:48:58;;;;;;;4.88;4.10;;;14.50;45.40;;;;;;5126725;27;45355;-71
2023/01/26 01:51:32;;;;;;;5.70;3.78;;;14.50;45.30;;;;;;5128111;27;45260;-71
2023/01/26 01:54:00;;;;;;;6.32;3.97;;;14.50;45.30;;;;;;5127803;27;46331;-71
2023/01/26 01:56:26;;;;;;;5.47;3.90;;;14.50;45.30;;;;;;5127787;27;45226;-71
2023/01/26 01:58:54;;;;;;;4.70;3.83;;;14.50;45.40;;;;;;5127996;27;45192;-71
2023/01/26 02:01:22;;;;;;;6.00;4.10;;;14.50;45.40;;;;;;5127992;27;45319;-71
2023/01/26 02:03:50;;;;;;;4.30;3.83;;;14.40;45.40;;;;;;5127648;27;45366;-71
2023/01/26 02:06:19;;;;;;;5.03;4.13;;;14.40;45.40;;;;;;5127670;27;45185;-71
2023/01/26 02:08:47;;;;;;;5.35;3.72;;;14.40;45.50;;;;;;5125204;27;45284;-71
2023/01/26 02:11:16;;;;;;;4.63;3.42;;;14.40;45.60;;;;;;5127776;27;45394;-71
2023/01/26 02:13:43;;;;;;;5.28;3.80;;;14.30;45.50;;;;;;5127432;27;46677;-71
2023/01/26 02:16:10;;;;;;;5.15;3.97;;;14.30;45.60;;;;;;5127519;27;45157;-71
2023/01/26 02:18:38;;;;;;;6.03;3.90;;;14.30;45.70;;;;;;5127715;27;45286;-71
2023/01/26 02:21:06;;;;;;;5.47;3.58;;;14.30;45.70;;;;;;5127687;27;45470;-71
2023/01/26 02:23:42;;;;;;;6.28;3.95;;;14.30;45.70;;;;;;5127320;27;46592;-71
2023/01/26 02:26:11;;;;;;;4.72;3.55;;;14.20;45.80;;;;;;5127338;27;45207;-72
2023/01/26 02:28:38;;;;;;;6.55;4.28;;;14.20;45.80;;;;;;5127333;27;45362;-71
2023/01/26 02:31:05;;;;;;;4.63;3.72;;;14.20;45.90;;;;;;5127686;27;45321;-72
2023/01/26 02:33:33;;;;;;;4.93;3.35;;;14.20;45.90;;;;;;5127185;27;46657;-71
2023/01/26 02:36:01;;;;;;;5.68;3.60;;;14.20;45.90;;;;;;5127178;27;45170;-71
2023/01/26 02:38:31;;;;;;;3.92;3.53;;;14.10;45.90;;;;;;5127156;27;45241;-71
2023/01/26 02:40:59;;;;;;;6.05;3.67;;;14.10;46.00;;;;;;5127458;27;45438;-71
2023/01/26 02:43:26;;;;;;;5.18;3.72;;;14.10;46.00;;;;;;5127035;27;45326;-71
2023/01/26 02:45:54;;;;;;;6.55;4.22;;;14.10;46.00;;;;;;5127140;27;45296;-71
2023/01/26 02:51:01;;;;;;;4.43;3.35;;;14.00;46.10;;;;;;5126055;27;45433;-71
2023/01/26 02:53:28;;;;;;;4.75;3.47;;;14.00;46.10;;;;;;5126937;27;46344;-71
2023/01/26 02:55:54;;;;;;;4.53;3.50;;;14.00;46.10;;;;;;5126925;27;45235;-71
2023/01/26 02:58:20;;;;;;;4.45;3.30;;;14.10;46.00;;;;;;5127098;27;45269;-71
2023/01/26 03:00:49;;;;;;;4.95;3.55;;;14.10;45.80;;;;;;5130141;27;45336;-71
2023/01/26 03:03:16;;;;;;;5.80;3.30;;;14.20;45.80;;;;;;5130391;27;46807;-71
2023/01/26 03:05:43;;;;;;;4.95;3.47;;;14.20;45.60;;;;;;5130442;27;45305;-71
2023/01/26 03:08:10;;;;;;;4.72;3.30;;;14.30;45.50;;;;;;5130346;27;45299;-71
2023/01/26 03:10:37;;;;;;;3.88;3.20;;;14.30;45.40;;;;;;5130723;27;45400;-71
2023/01/26 03:13:03;;;;;;;5.72;3.63;;;14.40;45.30;;;;;;5130297;27;45275;-71
2023/01/26 03:15:42;;;;;;;5.25;3.47;;;14.40;45.20;;;;;;5130401;27;45215;-71
2023/01/26 03:29:07;;;;;;;3.90;2.97;;;14.50;44.80;;;;;;5127553;27;45460;-71
2023/01/26 03:31:34;;;;;;;4.85;3.45;;;14.50;44.80;;;;;;5130402;27;45229;-71
2023/01/26 03:34:02;;;;;;;4.20;3.08;;;14.40;44.80;;;;;;5129971;27;46829;-71
2023/01/26 03:36:29;;;;;;;5.57;3.35;;;14.40;44.90;;;;;;5130366;27;45209;-71
2023/01/26 03:38:56;;;;;;;4.40;3.13;;;14.40;45.00;;;;;;5130128;27;45238;-72
2023/01/26 03:57:50;;;;;;;4.18;3.05;;;14.20;45.30;;;;;;5127149;27;45249;-71
2023/01/26 04:00:17;;;;;;;5.35;3.58;;;14.20;45.30;;;;;;5129843;27;45371;-71
2023/01/26 04:08:22;;;;;;;4.10;2.97;;;14.10;45.40;;;;;;5126731;27;45245;-71
2023/01/26 04:10:51;;;;;;;5.20;3.63;;;14.10;45.50;;;;;;5128759;27;45268;-71
2023/01/26 04:21:32;;;;;;;5.35;3.42;;;14.00;45.70;;;;;;5126824;27;45233;-71
2023/01/26 04:24:00;;;;;;;4.90;3.40;;;14.00;45.60;;;;;;5129564;27;45413;-71
2023/01/26 04:26:33;;;;;;;5.70;3.50;;;14.00;45.50;;;;;;5129177;27;45318;-71
2023/01/26 04:29:00;;;;;;;4.65;3.53;;;14.10;45.40;;;;;;5128917;27;46212;-71
2023/01/26 04:31:27;;;;;;;5.18;3.65;;;14.10;45.30;;;;;;5129296;27;45234;-71
2023/01/26 04:33:54;;;;;;;4.40;3.20;;;14.20;45.20;;;;;;5129423;27;45372;-71
2023/01/26 04:36:21;;;;;;;4.47;3.15;;;14.20;45.00;;;;;;5129151;27;47369;-71
2023/01/26 04:38:49;;;;;;;5.70;3.70;;;14.30;44.90;;;;;;5128842;27;45316;-71
2023/01/26 04:41:16;;;;;;;4.88;2.80;;;14.30;44.80;;;;;;5129244;27;45127;-71
2023/01/26 04:43:43;;;;;;;4.03;2.78;;;14.30;44.70;;;;;;5129203;27;45245;-71
2023/01/26 04:46:10;;;;;;;5.80;2.95;;;14.40;44.60;;;;;;5128838;27;47337;-71
2023/01/26 04:48:37;;;;;;;4.68;3.40;;;14.40;44.40;;;;;;5128670;27;45342;-71
2023/01/26 04:51:05;;;;;;;4.05;3.20;;;14.40;44.40;;;;;;5128955;27;45269;-71
2023/01/26 04:53:32;;;;;;;5.35;3.83;;;14.40;44.40;;;;;;5129335;27;45190;-71
2023/01/26 04:56:00;;;;;;;4.43;3.20;;;14.40;44.40;;;;;;5128718;27;45350;-71
2023/01/26 04:58:27;;;;;;;4.65;2.90;;;14.40;44.40;;;;;;5128570;27;45241;-71
2023/01/26 05:00:54;;;;;;;4.70;3.10;;;14.40;44.50;;;;;;5128977;27;45230;-71
2023/01/26 05:03:21;;;;;;;4.75;2.72;;;14.40;44.50;;;;;;5129238;27;45129;-71
2023/01/26 05:05:48;;;;;;;4.13;3.47;;;14.30;44.50;;;;;;5128398;27;45502;-71
2023/01/26 05:08:15;;;;;;;5.35;2.90;;;14.30;44.60;;;;;;5128257;27;45322;-71
2023/01/26 05:10:42;;;;;;;3.63;2.88;;;14.30;44.70;;;;;;5128659;27;45249;-71
2023/01/26 05:13:10;;;;;;;4.30;3.25;;;14.30;44.70;;;;;;5128811;27;45184;-71
2023/01/26 05:15:37;;;;;;;5.20;3.10;;;14.20;44.70;;;;;;5128359;27;47352;-71
2023/01/26 05:18:04;;;;;;;2.92;2.28;;;14.20;44.80;;;;;;5128393;27;45220;-71
2023/01/26 05:20:31;;;;;;;3.55;2.88;;;14.20;45.40;;;;;;5128572;27;45244;-71
2023/01/26 05:22:58;;;;;;;5.30;3.03;;;14.10;44.80;;;;;;5128475;27;45186;-71
2023/01/26 05:25:25;;;;;;;3.05;2.65;;;14.10;44.90;;;;;;5128193;27;45604;-71
2023/01/26 05:27:52;;;;;;;4.20;2.78;;;14.10;44.90;;;;;;5128287;27;45222;-71
2023/01/26 05:30:20;;;;;;;3.72;2.95;;;14.10;45.00;;;;;;5128122;27;45290;-71
2023/01/26 05:32:47;;;;;;;4.18;2.88;;;14.00;45.00;;;;;;5128450;27;45296;-71
2023/01/26 05:35:14;;;;;;;4.55;2.92;;;14.00;45.00;;;;;;5128069;27;45532;-71
2023/01/26 05:37:42;;;;;;;3.10;2.60;;;13.90;45.00;;;;;;5128025;27;45231;-71
2023/01/26 05:40:10;;;;;;;4.80;3.08;;;13.90;45.10;;;;;;5128020;27;45310;-71
2023/01/26 05:42:37;;;;;;;4.10;2.95;;;13.90;45.20;;;;;;5128242;27;45372;-71
2023/01/26 05:45:04;;;;;;;2.80;2.47;;;14.00;45.10;;;;;;5127851;27;46379;-71
2023/01/26 05:47:32;;;;;;;5.13;3.10;;;14.00;45.00;;;;;;5127875;27;45256;-70
2023/01/26 05:49:59;;;;;;;4.03;2.95;;;14.10;44.90;;;;;;5127948;27;45302;-70
2023/01/26 05:52:26;;;;;;;5.07;3.20;;;14.10;44.80;;;;;;5128445;27;45409;-71
2023/01/26 05:54:53;;;;;;;3.67;2.90;;;14.10;44.60;;;;;;5127709;27;47045;-70
2023/01/26 05:57:19;;;;;;;4.35;2.83;;;14.20;44.50;;;;;;5127831;27;45331;-71
2023/01/26 05:59:46;;;;;;;3.45;2.35;;;14.20;44.40;;;;;;5127768;27;45327;-71
2023/01/26 06:02:13;;;;;;;3.72;2.80;;;14.30;44.40;;;;;;5127983;27;45407;-71
2023/01/26 06:04:41;;;;;;;4.00;2.90;;;14.30;44.30;;;;;;5127585;27;45329;-71
2023/01/26 06:07:09;;;;;;;4.38;3.15;;;14.30;44.10;;;;;;5127659;27;45425;-71
2023/01/26 06:09:36;;;;;;;4.07;2.90;;;14.30;44.00;;;;;;5127172;27;45373;-71
2023/01/26 06:12:03;;;;;;;3.35;2.70;;;14.40;44.00;;;;;;5127887;27;45173;-71
2023/01/26 06:14:30;;;;;;;3.53;2.85;;;14.40;43.90;;;;;;5127334;27;45445;-71
2023/01/26 06:16:57;;;;;;;3.58;2.72;;;14.40;43.90;;;;;;5127475;27;45339;-72
2023/01/26 06:19:23;;;;;;;3.72;2.80;;;14.40;43.90;;;;;;5127490;27;45421;-71
2023/01/26 06:21:52;;;;;;;3.33;2.60;;;14.40;43.90;;;;;;5127736;27;45239;-71
2023/01/26 06:24:19;;;;;;;4.03;2.70;;;14.30;43.90;;;;;;5127214;27;45473;-71
2023/01/26 06:26:48;;;;;;;3.95;2.83;;;14.30;44.00;;;;;;5127323;27;45536;-71
2023/01/26 06:29:14;;;;;;;3.85;2.63;;;14.30;44.10;;;;;;5127337;27;45472;-71
2023/01/26 06:31:41;;;;;;;3.00;2.60;;;14.30;44.10;;;;;;5124953;27;45182;-71
2023/01/26 06:34:09;;;;;;;3.20;2.38;;;14.20;44.20;;;;;;5126379;27;46791;-71
2023/01/26 06:36:36;;;;;;;3.05;2.30;;;14.20;44.20;;;;;;5127606;27;45305;-71
2023/01/26 06:39:04;;;;;;;3.22;2.70;;;14.10;44.20;;;;;;5127130;27;45429;-71
2023/01/26 06:41:31;;;;;;;3.65;2.63;;;14.10;44.30;;;;;;5127490;27;45117;-71
2023/01/26 06:43:58;;;;;;;2.97;2.40;;;14.10;44.40;;;;;;5127077;27;45220;-71
2023/01/26 06:46:25;;;;;;;3.88;2.88;;;14.10;44.40;;;;;;5127264;27;45284;-71
2023/01/26 06:48:52;;;;;;;2.58;2.13;;;14.00;44.40;;;;;;5127077;27;45269;-71
2023/01/26 06:51:52;;;;;;;3.20;2.47;;;14.00;44.50;;;;;;5127280;27;45302;-71
2023/01/26 06:54:20;;;;;;;3.17;2.50;;;14.00;44.60;;;;;;5126962;27;45472;-71
2023/01/26 06:56:47;;;;;;;4.90;2.85;;;14.00;44.60;;;;;;5127013;27;45378;-72
2023/01/26 06:59:14;;;;;;;3.50;2.25;;;13.90;44.60;;;;;;5126919;27;45398;-71
2023/01/26 07:01:42;;;;;;;3.78;2.72;;;13.90;44.80;;;;;;5127185;27;45192;-71
2023/01/26 07:04:09;;;;;;;3.65;2.80;;;13.90;44.70;;;;;;5126766;27;46376;-71
2023/01/26 07:06:36;;;;;;;4.05;2.92;;;14.00;44.60;;;;;;5124255;27;45310;-72
2023/01/26 07:09:03;;;;;;;3.22;2.30;;;14.00;44.50;;;;;;5126699;27;45312;-71
2023/01/26 07:11:31;;;;;;;3.92;2.78;;;14.10;44.50;;;;;;5127119;27;45319;-71
2023/01/26 07:13:58;;;;;;;5.07;2.97;;;14.10;44.40;;;;;;5126718;27;45212;-72
2023/01/26 07:16:25;;;;;;;3.03;2.22;;;14.10;44.30;;;;;;5126801;27;45155;-71
2023/01/26 07:18:53;;;;;;;2.85;2.53;;;14.10;44.20;;;;;;5126935;27;45388;-71
2023/01/26 07:21:21;;;;;;;3.53;2.70;;;14.10;44.10;;;;;;5127053;27;45284;-71
2023/01/26 07:23:48;;;;;;;4.28;2.40;;;14.20;44.10;;;;;;5126630;27;45466;-71
2023/01/26 07:26:15;;;;;;;2.83;2.40;;;14.20;44.00;;;;;;5126594;27;45192;-71
2023/01/26 07:28:43;;;;;;;3.85;2.78;;;14.20;44.00;;;;;;5126681;27;45353;-71
2023/01/26 07:31:11;;;;;;;4.03;2.55;;;14.20;43.90;;;;;;5126832;27;45289;-71
2023/01/26 07:33:38;;;;;;;3.83;2.50;;;14.20;43.90;;;;;;5126741;27;45184;-71
2023/01/26 07:36:05;;;;;;;4.10;2.65;;;14.30;43.80;;;;;;5126557;27;45246;-72
2023/01/26 07:38:32;;;;;;;3.58;2.47;;;14.30;43.70;;;;;;5126451;27;45328;-71
2023/01/26 07:40:59;;;;;;;3.97;2.47;;;14.30;43.70;;;;;;5126668;27;45462;-72
2023/01/26 07:43:26;;;;;;;3.85;2.47;;;14.30;43.70;;;;;;5126050;27;47576;-71
2023/01/26 07:45:54;;;;;;;3.95;2.38;;;14.30;43.70;;;;;;5126470;27;45154;-71
2023/01/26 07:48:22;;;;;;;5.05;2.70;;;14.20;43.70;;;;;;5130029;27;45281;-72
2023/01/26 07:50:49;;;;;;;3.00;2.50;;;14.20;43.80;;;;;;5130061;27;45419;-72
2023/01/26 07:53:18;;;;;;;5.30;2.72;;;14.20;43.90;;;;;;5129663;27;45269;-72
2023/01/26 07:55:45;;;;;;;2.70;2.30;;;14.10;43.90;;;;;;5129878;27;45146;-71
2023/01/26 07:58:11;;;;;;;5.10;2.83;;;14.10;43.90;;;;;;5130073;27;45433;-72
2023/01/26 08:00:38;;;;;;;4.65;2.28;;;14.10;44.00;;;;;;5129979;27;45422;-72
2023/01/26 08:03:06;;;;;;;4.45;2.40;;;14.10;44.10;;;;;;5129364;27;46695;-72
2023/01/26 08:05:34;;;;;;;3.17;2.60;;;14.00;44.10;;;;;;5130215;27;45180;-71
2023/01/26 08:08:01;;;;;;;3.28;2.75;;;14.00;44.20;;;;;;5129937;27;45215;-72
2023/01/26 08:10:30;;;;;;;4.15;2.70;;;13.90;44.20;;;;;;5129806;27;45409;-72
2023/01/26 08:12:57;;;;;;;4.65;3.30;;;14.00;44.30;;;;;;5129575;27;46443;-72
2023/01/26 08:15:23;;;;;;;5.30;3.05;;;13.90;44.30;;;;;;5129601;27;45189;-72
2023/01/26 08:17:50;;;;;;;3.78;2.78;;;13.90;44.40;;;;;;5129708;27;45129;-71
2023/01/26 08:20:19;;;;;;;3.45;2.45;;;13.90;44.40;;;;;;5130003;27;45303;-71
2023/01/26 08:22:45;;;;;;;4.45;3.08;;;13.90;44.40;;;;;;5129298;27;46537;-72
2023/01/26 08:25:12;;;;;;;3.15;2.40;;;13.90;44.30;;;;;;5129678;27;45261;-72
2023/01/26 08:27:39;;;;;;;4.75;2.70;;;14.00;44.30;;;;;;5129495;27;45211;-71
2023/01/26 08:30:07;;;;;;;5.00;2.80;;;14.00;44.10;;;;;;5129624;27;45224;-72
2023/01/26 08:32:34;;;;;;;3.72;2.60;;;14.00;44.00;;;;;;5129076;27;45375;-72
2023/01/26 08:35:01;;;;;;;3.88;2.63;;;14.10;43.90;;;;;;5129102;27;45343;-72
2023/01/26 08:37:29;;;;;;;4.30;3.03;;;14.10;43.80;;;;;;5129309;27;45256;-71
2023/01/26 08:39:56;;;;;;;4.45;3.03;;;14.20;43.70;;;;;;5129166;27;45398;-71
2023/01/26 08:42:24;;;;;;;3.67;2.97;;;14.20;43.50;;;;;;5129107;27;45722;-72
2023/01/26 08:44:51;;;;;;;3.85;2.88;;;14.30;43.50;;;;;;5129151;27;45303;-72
2023/01/26 08:47:18;;;;;;;4.13;3.05;;;14.30;43.30;;;;;;5129101;27;45327;-71
2023/01/26 08:49:44;;;;;;;4.53;3.28;;;14.40;43.30;;;;;;5129241;27;45450;-72
2023/01/26 08:52:12;;;;;;;3.42;3.10;;;14.40;43.20;;;;;;5128847;27;45309;-72
2023/01/26 08:54:40;;;;;;;4.72;3.30;;;14.40;43.20;;;;;;5129071;27;45206;-72
2023/01/26 08:57:07;;;;;;;4.72;2.83;;;14.40;43.20;;;;;;5128800;27;45335;-72
2023/01/26 08:59:34;;;;;;;5.72;2.85;;;14.40;43.30;;;;;;5129209;27;45467;-72
2023/01/26 09:02:00;;;;;;;3.78;2.90;;;14.30;43.30;;;;;;5128757;27;45527;-71
2023/01/26 09:04:27;;;;;;;5.25;3.20;;;14.30;43.30;;;;;;5128799;27;45283;-71
2023/01/26 09:06:54;;;;;;;4.07;3.25;;;14.30;43.40;;;;;;5128800;27;45330;-72
2023/01/26 09:09:21;;;;;;;5.43;3.05;;;14.30;43.50;;;;;;5128524;27;45354;-72
2023/01/26 09:11:49;;;;;;;4.22;3.20;;;14.20;43.50;;;;;;5128469;27;46646;-71
2023/01/26 09:14:16;;;;;;;3.58;2.92;;;14.20;43.50;;;;;;5128514;27;45131;-71
2023/01/26 09:16:43;;;;;;;3.60;2.53;;;14.20;43.60;;;;;;5128681;27;45341;-71
2023/01/26 09:19:09;;;;;;;4.50;3.08;;;14.20;43.70;;;;;;5128669;27;45409;-71
2023/01/26 09:21:36;;;;;;;3.80;3.15;;;14.10;43.70;;;;;;5128789;27;45379;-72
2023/01/26 09:24:04;;;;;;;4.55;3.15;;;14.10;43.80;;;;;;5128517;27;45252;-72
2023/01/26 09:26:30;;;;;;;5.43;3.33;;;14.10;43.90;;;;;;5128452;27;45233;-72
2023/01/26 09:28:58;;;;;;;5.57;3.22;;;14.00;44.00;;;;;;5128638;27;45176;-71
2023/01/26 09:31:25;;;;;;;5.57;3.22;;;14.00;44.00;;;;;;5128409;27;45376;-71
2023/01/26 09:33:52;;;;;;;6.32;3.38;;;13.90;44.00;;;;;;5128292;27;45357;-72
2023/01/26 09:36:19;;;;;;;5.03;3.55;;;14.00;44.10;;;;;;5128372;27;45223;-71
2023/01/26 09:38:46;;;;;;;4.97;3.60;;;13.90;44.20;;;;;;5128398;27;45294;-71
2023/01/26 09:41:21;;;;;;;4.85;3.05;;;13.90;44.20;;;;;;5125373;27;45364;-71
2023/01/26 09:43:49;;;;;;;5.13;3.28;;;13.90;44.30;;;;;;5127926;27;45246;-71
2023/01/26 09:46:21;;;;;;;4.75;3.20;;;13.90;44.20;;;;;;5128291;27;45281;-71
2023/01/26 09:48:54;;;;;;;5.15;3.38;;;14.00;44.20;;;;;;5128193;27;45382;-71
2023/01/26 09:51:23;;;;;;;5.22;3.75;;;14.00;44.10;;;;;;5127711;27;46393;-71
2023/01/26 09:53:52;;;;;;;4.50;3.20;;;14.00;44.00;;;;;;5127891;27;45224;-71
2023/01/26 09:56:20;;;;;;;5.03;3.22;;;14.10;43.80;;;;;;5127857;27;45191;-71
2023/01/26 09:58:49;;;;;;;4.97;3.40;;;14.20;43.70;;;;;;5128186;27;45264;-71
2023/01/26 10:01:20;;;;;;;4.28;3.38;;;14.20;43.60;;;;;;5127811;27;45256;-71
2023/01/26 10:03:50;;;;;;;4.70;3.20;;;14.30;43.50;;;;;;5127879;27;45161;-71
2023/01/26 10:06:21;;;;;;;5.13;3.33;;;14.30;43.40;;;;;;5128153;27;45259;-72
2023/01/26 10:08:47;;;;;;;3.28;2.97;;;14.40;43.20;;;;;;5126909;27;45663;-72
2023/01/26 10:11:17;;;;;;;5.13;3.35;;;14.40;43.00;;;;;;5127718;27;45492;-71
2023/01/26 10:13:46;;;;;;;4.40;3.08;;;14.50;43.00;;;;;;5127789;27;45227;-71
2023/01/26 10:16:13;;;;;;;4.32;2.92;;;14.50;43.00;;;;;;5127739;27;45195;-72
2023/01/26 10:18:47;;;;;;;5.80;3.40;;;14.40;43.00;;;;;;5127539;27;45616;-72
2023/01/26 10:21:14;;;;;;;4.40;3.13;;;14.40;43.00;;;;;;5127810;27;46331;-72
2023/01/26 10:23:43;;;;;;;5.88;3.80;;;14.40;43.00;;;;;;5127512;27;45322;-72
2023/01/26 10:26:12;;;;;;;5.93;3.38;;;14.40;43.10;;;;;;5127524;27;45199;-71
2023/01/26 10:28:39;;;;;;;4.60;3.38;;;14.40;43.20;;;;;;5127833;27;45282;-71
2023/01/26 10:31:09;;;;;;;4.13;3.20;;;14.30;43.10;;;;;;5127253;27;46448;-72
2023/01/26 10:33:37;;;;;;;4.35;3.35;;;14.30;43.80;;;;;;5127326;27;45166;-72
2023/01/26 10:36:06;;;;;;;4.25;3.05;;;14.30;43.30;;;;;;5127537;27;45345;-72
2023/01/26 10:38:41;;;;;;;5.50;3.25;;;14.20;43.30;;;;;;5127593;27;45255;-71
2023/01/26 10:41:20;;;;;;;5.18;3.20;;;14.20;43.40;;;;;;5127148;27;47338;-72
2023/01/26 10:43:51;;;;;;;4.40;3.10;;;14.20;43.50;;;;;;5127208;27;45146;-72
2023/01/26 10:46:24;;;;;;;4.38;3.08;;;14.10;43.50;;;;;;5127381;27;45285;-71
2023/01/26 10:48:51;;;;;;;4.20;3.08;;;14.10;43.60;;;;;;5127277;27;45459;-71
2023/01/26 10:51:24;;;;;;;6.00;3.20;;;14.10;43.60;;;;;;5127073;27;46593;-72
2023/01/26 10:53:50;;;;;;;4.13;2.88;;;14.10;43.70;;;;;;5127073;27;45429;-71
2023/01/26 10:56:19;;;;;;;4.97;3.08;;;14.00;43.70;;;;;;5127103;27;45366;-71
2023/01/26 10:58:48;;;;;;;5.00;3.25;;;14.00;43.80;;;;;;5127138;27;45403;-71
2023/01/26 11:01:17;;;;;;;4.38;3.30;;;14.00;43.90;;;;;;5127023;27;46899;-72
2023/01/26 11:03:56;;;;;;;3.58;2.65;;;14.00;43.90;;;;;;5126940;27;45241;-71
2023/01/26 11:06:27;;;;;;;6.82;3.20;;;13.90;44.00;;;;;;5127111;27;45222;-71
2023/01/26 11:08:54;;;;;;;4.15;2.85;;;13.90;44.00;;;;;;5126807;27;45351;-71
2023/01/26 11:11:25;;;;;;;3.85;2.97;;;13.90;44.10;;;;;;5126636;27;45456;-73
2023/01/26 11:14:09;;;;;;;4.03;2.95;;;13.90;44.00;;;;;;5127028;27;45278;-71
2023/01/26 11:16:36;;;;;;;3.88;2.85;;;14.00;43.90;;;;;;5127060;27;45332;-71
2023/01/26 11:19:05;;;;;;;4.65;3.22;;;14.00;43.70;;;;;;5126888;27;45482;-71
2023/01/26 11:21:35;;;;;;;4.97;3.03;;;14.10;43.60;;;;;;5129241;27;45266;-71
2023/01/26 11:24:04;;;;;;;3.95;2.80;;;14.10;43.60;;;;;;5130462;27;45327;-72
2023/01/26 11:27:12;;;;;;;5.03;3.00;;;14.10;43.40;;;;;;5130626;27;45219;-71
2023/01/26 11:29:49;;;;;;;5.40;2.90;;;14.20;44.00;;;;;;5081266;27;45582;-72
2023/01/26 11:32:20;;;;;;;4.75;3.13;;;14.30;43.30;;;;;;5130075;27;46702;-71
2023/01/26 11:34:52;;;;;;;5.00;2.70;;;14.30;43.10;;;;;;5130049;27;45184;-71
2023/01/26 11:37:41;;;;;;;4.07;3.10;;;14.30;43.00;;;;;;5130297;27;45372;-71
2023/01/26 11:40:26;;;;;;;4.50;3.17;;;14.30;42.90;;;;;;5130304;27;45374;-71
2023/01/26 11:43:21;;;;;;;3.65;2.80;;;14.40;42.90;;;;;;5130052;27;45519;-72
2023/01/26 11:46:08;;;;;;;3.30;2.50;;;14.40;42.90;;;;;;5107098;27;45458;-73
2023/01/26 11:48:39;;;;;;;4.95;3.22;;;14.30;43.00;;;;;;5125525;27;45456;-73
2023/01/26 11:51:09;;;;;;;4.05;3.15;;;14.30;43.10;;;;;;5130847;27;45238;-72
2023/01/26 11:54:08;;;;;;;5.75;2.92;;;14.30;43.10;;;;;;5129958;27;48278;-73
2023/01/26 11:56:40;;;;;;;10.48;2.97;;;14.30;43.20;;;;;;5130372;27;45165;-73
2023/01/26 11:59:10;;;;;;;6.82;2.78;;;14.20;43.30;;;;;;5130536;27;45309;-72
2023/01/26 12:01:39;;;;;;;6.50;3.00;;;14.20;43.40;;;;;;5130482;27;45207;-72
2023/01/26 12:04:06;;;;;;;4.85;3.03;;;14.20;43.40;;;;;;5129996;27;46812;-72
2023/01/26 12:06:36;;;;;;;4.40;2.80;;;14.20;43.50;;;;;;5130242;27;45294;-72
2023/01/26 12:09:10;;;;;;;4.43;3.00;;;14.10;43.50;;;;;;5130016;27;45306;-72
2023/01/26 12:11:39;;;;;;;4.93;2.92;;;14.10;43.50;;;;;;5130440;27;45364;-73
2023/01/26 12:14:12;;;;;;;5.65;2.90;;;14.10;43.60;;;;;;5129972;27;45361;-72
2023/01/26 12:16:46;;;;;;;6.18;3.20;;;14.00;43.60;;;;;;5130082;27;45216;-72
2023/01/26 12:19:16;;;;;;;4.47;2.65;;;14.00;43.60;;;;;;5128881;27;45323;-71
2023/01/26 12:21:45;;;;;;;5.95;3.28;;;14.00;43.70;;;;;;5120491;27;45379;-74
2023/01/26 12:24:20;;;;;;;5.18;4.07;;;13.90;44.10;;;;;;5122238;27;46354;-71
2023/01/26 12:26:48;;;;;;;4.47;3.08;;;14.00;44.80;;;;;;5129633;27;45336;-71
2023/01/26 12:29:17;;;;;;;3.30;2.88;;;13.90;44.00;;;;;;5129444;27;45251;-72
2023/01/26 12:31:46;;;;;;;3.70;2.70;;;13.90;44.10;;;;;;5129161;27;45375;-71
2023/01/26 12:34:13;;;;;;;3.70;2.95;;;13.90;44.20;;;;;;5129992;27;46888;-76
2023/01/26 12:36:43;;;;;;;6.13;3.67;;;13.90;44.40;;;;;;5129389;27;45220;-71
2023/01/26 12:39:14;;;;;;;3.83;3.00;;;13.90;44.40;;;;;;5126901;27;45507;-72
2023/01/26 12:41:56;;;;;;;6.93;3.90;;;14.00;44.40;;;;;;5129431;27;45538;-72
2023/01/26 12:44:28;;;;;;;6.88;3.00;;;14.00;44.30;;;;;;5128995;27;47918;-70
2023/01/26 12:46:59;;;;;;;4.88;2.90;;;14.00;44.10;;;;;;5128911;27;45232;-71
2023/01/26 12:49:28;;;;;;;5.28;3.00;;;14.10;44.10;;;;;;5128920;27;45292;-71
2023/01/26 12:51:56;;;;;;;6.35;2.95;;;14.10;44.00;;;;;;5129204;27;45391;-71
2023/01/26 12:54:28;;;;;;;4.88;3.03;;;14.20;43.90;;;;;;5126683;27;45249;-72
2023/01/26 12:56:56;;;;;;;4.32;2.85;;;14.20;43.70;;;;;;5123083;27;45390;-71
2023/01/26 12:59:26;;;;;;;6.07;2.88;;;14.20;44.00;;;;;;5108159;27;45158;-72
2023/01/26 13:01:52;;;;;;;5.22;3.10;;;14.30;43.60;;;;;;5111858;27;45379;-72
2023/01/26 13:04:19;;;;;;;3.42;2.72;;;14.30;43.60;;;;;;5128415;27;47571;-71
2023/01/26 13:06:46;;;;;;;4.65;3.03;;;14.30;43.50;;;;;;5127356;27;45437;-72
2023/01/26 13:09:20;;;;;;;4.82;3.20;;;14.30;43.50;;;;;;5124050;27;45364;-71
2023/01/26 13:11:50;;;;;;;5.72;3.05;;;14.40;43.40;;;;;;5125533;27;45391;-71
2023/01/26 13:14:38;;;;;;;4.07;3.08;;;14.40;43.50;;;;;;5128367;27;46470;-71
2023/01/26 13:17:42;;;;;;;4.70;2.90;;;14.30;43.40;;;;;;5123329;27;45291;-71
2023/01/26 13:20:22;;;;;;;4.40;2.42;;;14.30;43.40;;;;;;5128479;27;45342;-71
2023/01/26 13:22:48;;;;;;;5.25;2.70;;;14.30;43.40;;;;;;5128460;27;45188;-71
2023/01/26 13:25:17;;;;;;;6.10;3.10;;;14.20;43.40;;;;;;5128095;27;45621;-71
2023/01/26 13:27:46;;;;;;;5.65;3.42;;;14.20;43.50;;;;;;5128157;27;45277;-72
2023/01/26 13:30:46;;;;;;;5.15;3.15;;;14.20;43.50;;;;;;5128401;27;45346;-70
2023/01/26 13:33:15;;;;;;;4.05;2.80;;;14.10;43.60;;;;;;5120454;27;45402;-72
2023/01/26 13:35:42;;;;;;;4.85;3.22;;;14.10;43.50;;;;;;5127924;27;46412;-72
2023/01/26 13:38:16;;;;;;;4.40;2.90;;;14.10;43.70;;;;;;5127537;27;45193;-72
2023/01/26 13:40:45;;;;;;;5.35;2.95;;;14.00;43.70;;;;;;5125990;27;45201;-72